METAR Data
IDs: Format: Raw Decoded Include TAF

Data at: 1815 UTC 16 Oct 2021

KTME 161755Z AUTO 04015KT 8SM CLR 23/06 A3030 RMK AO2
KTME 161735Z AUTO 04013G20KT 8SM CLR 22/06 A3031 RMK AO2
KTME 161715Z AUTO 05013G20KT 8SM CLR 22/06 A3032 RMK AO2
KTME 161655Z AUTO 03017KT 8SM CLR 21/07 A3032 RMK AO2
KTME 161635Z AUTO 04014G21KT 8SM CLR 21/06 A3032 RMK AO2
KTME 161615Z AUTO 04016KT 8SM CLR 21/06 A3032 RMK AO2
KTME 161555Z AUTO 04018G26KT 8SM CLR 20/06 A3033 RMK AO2
KTME 161535Z AUTO 04015G21KT 9SM CLR 20/07 A3032 RMK AO2
KTME 161515Z AUTO 05016G22KT 9SM CLR 19/07 A3033 RMK AO2
KTME 161455Z AUTO 04015G21KT 8SM CLR 19/07 A3032 RMK AO2
KTME 161435Z AUTO 03011KT 9SM CLR 19/09 A3032 RMK AO2
KTME 161415Z AUTO 02011KT 9SM 18/09 A3031 RMK AO2
KTME 161355Z AUTO 02009KT 9SM 17/09 A3031 RMK AO2
KTME 161335Z AUTO 02008KT 9SM CLR 16/10 A3030 RMK AO2
KTME 161315Z AUTO 01007KT 8SM CLR 15/10 A3029 RMK AO2
KTME 161255Z AUTO 01006KT 9SM CLR 13/10 A3029 RMK AO2
KTME 161235Z AUTO 01006KT 8SM CLR 13/09 A3028 RMK AO2
KTME 161215Z AUTO 01006KT 10SM CLR 14/09 A3027 RMK AO2
KTME 161155Z AUTO 01007KT 9SM CLR 14/09 A3027 RMK AO2
KTME 161135Z AUTO 01007KT 10SM CLR 14/09 A3026 RMK AO2
KTME 161115Z AUTO 01007KT 10SM CLR 15/09 A3025 RMK AO2
KTME 161055Z AUTO 01009KT 9SM CLR 15/09 A3024 RMK AO2
KTME 161035Z AUTO 01010KT 9SM CLR 16/09 A3023 RMK AO2
KTME 161015Z AUTO 02011KT 10SM CLR 16/09 A3022 RMK AO2
KTME 160955Z AUTO 02010KT 9SM CLR 16/10 A3022 RMK AO2
KTME 160935Z AUTO 01011KT 9SM CLR 16/10 A3021 RMK AO2
KTME 160915Z AUTO 01010KT 9SM CLR 17/11 A3020 RMK AO2
KTME 160855Z AUTO 01010KT 9SM CLR 17/11 A3019 RMK AO2
KTME 160835Z AUTO 01010KT 10SM CLR 17/11 A3019 RMK AO2
KTME 160815Z AUTO 01012KT 10SM CLR 18/11 A3018 RMK AO2
KTME 160755Z AUTO 02010KT 10SM CLR 18/11 A3018 RMK AO2
KTME 160735Z AUTO 01009KT 9SM CLR 18/11 A3018 RMK AO2
KTME 160715Z AUTO 01010KT 10SM CLR 18/12 A3018 RMK AO2
KTME 160655Z AUTO 01009G15KT 10SM CLR 18/12 A3018 RMK AO2
KTME 160635Z AUTO 01012KT 9SM CLR 19/13 A3017 RMK AO2
KTME 160615Z AUTO 01011KT 10SM CLR 19/13 A3017 RMK AO2
KTME 160555Z AUTO 01014KT 8SM CLR 20/13 A3016 RMK AO2
KTME 160535Z AUTO 01012KT 9SM CLR 20/14 A3016 RMK AO2
KTME 160515Z AUTO 01012KT 9SM CLR 20/15 A3016 RMK AO2
KTME 160455Z AUTO 01012KT 9SM CLR 21/16 A3015 RMK AO2
KTME 160435Z AUTO 01014KT 10SM CLR 21/16 A3014 RMK AO2
KTME 160415Z AUTO 01010KT 10SM CLR 21/16 A3014 RMK AO2
KTME 160355Z AUTO 01011G16KT 9SM CLR 22/17 A3013 RMK AO2
KTME 160335Z AUTO 01009KT 9SM CLR 22/17 A3012 RMK AO2
KTME 160315Z AUTO 01013KT 9SM CLR 23/17 A3010 RMK AO2
KTME 160255Z AUTO 36014G20KT 10SM CLR 23/17 A3008 RMK AO2
KTME 160235Z AUTO 36015KT 9SM CLR 23/18 A3007 RMK AO2
KTME 160215Z AUTO 35014KT 9SM CLR 24/18 A3004 RMK AO2
KTME 160155Z AUTO 33008G13KT 10SM CLR 24/19 A3004 RMK AO2
KTME 160135Z AUTO 34007KT 9SM CLR 24/20 A3003 RMK AO2
KTME 160115Z AUTO 34008KT 9SM FEW120 25/20 A3002 RMK AO2
KTME 160055Z AUTO 35010KT 9SM SCT120 25/20 A3001 RMK AO2
KTME 160035Z AUTO 35009KT 9SM CLR 25/21 A3000 RMK AO2
KTME 160015Z AUTO 34010KT 9SM CLR 26/21 A2999 RMK AO2
KTME 152355Z AUTO 33012KT 6SM HZ CLR 27/22 A2998 RMK AO2
KTME 152315Z AUTO 34011G17KT 7SM 29/23 A2995 RMK AO2
KTME 152255Z AUTO 7SM RMK AO2
KTME 152235Z AUTO 33008KT 7SM CLR 32/23 A2992 RMK AO2
KTME 152215Z AUTO 33007KT 7SM CLR 33/22 A2992 RMK AO2
KTME 152155Z AUTO 33007KT 7SM CLR 33/24 A2992 RMK AO2
KTME 152135Z AUTO 00000KT 7SM FEW044 SCT055 SCT070 33/23 A2992 RMK AO2
KTME 152115Z AUTO 20004KT 8SM SCT043 SCT050 SCT070 32/24 A2992 RMK AO2
KTME 152055Z AUTO 20008KT 8SM FEW041 33/24 A2993 RMK AO2
KTME 152035Z AUTO 14004KT 8SM FEW040 FEW070 29/24 A2993 RMK AO2
KTME 152015Z AUTO 20005KT 6SM -DZ FEW035 FEW042 FEW070 29/23 A2993 RMK AO2
KTME 151955Z AUTO 17004KT 7SM CLR 29/25 A2993 RMK AO2
KTME 151935Z AUTO 00000KT 7SM -DZ CLR 29/25 A2993 RMK AO2
KTME 151915Z AUTO VRB04G17KT 3/4SM +RA VV005 28/24 A2994 RMK AO2 VIS 1/4V5
KTME 151855Z AUTO 30004KT 7SM -DZ CLR 31/25 A2994 RMK AO2
KTME 151835Z AUTO 30005KT 6SM HZ FEW032 FEW041 SCT110 35/24 A2994 RMK AO2
KTME 151815Z AUTO VRB04KT 6SM HZ SCT030 SCT036 35/24 A2995 RMK AO2
KTME 151755Z AUTO 23007KT 7SM FEW028 SCT035 BKN047 34/25 A2996 RMK AO2
KTME 151735Z AUTO 22006KT 7SM FEW027 SCT047 34/25 A2996 RMK AO2
KTME 151715Z AUTO VRB05KT 7SM CLR 33/25 A2997 RMK AO2
KTME 151655Z AUTO 24006KT 6SM HZ FEW024 SCT031 33/25 A2997 RMK AO2
KTME 151635Z AUTO VRB04KT 7SM FEW018 FEW025 32/26 A2998 RMK AO2
KTME 151615Z AUTO 26006KT 7SM FEW017 FEW027 SCT038 31/26 A2998 RMK AO2
KTME 151555Z AUTO 24006KT 7SM SCT017 SCT027 BKN042 30/26 A2998 RMK AO2
KTME 151535Z AUTO 23007KT 8SM SCT014 BKN020 BKN026 30/26 A2998 RMK AO2
KTME 151515Z AUTO 22006KT 6SM HZ FEW010 SCT013 BKN022 29/27 A2997 RMK AO2
KTME 151455Z AUTO 21005KT 6SM BR FEW010 SCT022 BKN045 29/28 A2997 RMK AO2
KTME 151435Z AUTO 21006KT 7SM FEW006 SCT023 BKN046 28/28 A2996 RMK AO2
KTME 151415Z AUTO 22004KT 5SM BR 27/27 A2995 RMK AO2
KTME 151355Z AUTO 00000KT 5SM BR BKN004 BKN024 OVC047 27/27 A2995 RMK AO2
KTME 151335Z AUTO 00000KT 4SM BR FEW004 SCT024 OVC048 26/26 A2994 RMK AO2
KTME 151315Z AUTO 00000KT 2SM BR BKN047 25/25 A2993 RMK AO2
KTME 151255Z AUTO 00000KT 3/4SM BR BKN003 OVC044 24/24 A2993 RMK AO2
KTME 151235Z AUTO 00000KT 1/4SM FG OVC003 24/24 A2992 RMK AO2
KTME 151215Z AUTO 00000KT 1 1/2SM BR OVC003 23/23 A2991 RMK AO2
KTME 151155Z AUTO 00000KT 1/4SM FG BKN003 OVC012 24/24 A2991 RMK AO2
KTME 151135Z AUTO 00000KT 1SM BR SCT003 BKN012 OVC044 24/24 A2991 RMK AO2
KTME 151115Z AUTO 19003KT 1/2SM BR BKN003 BKN013 OVC026 24/24 A2990 RMK AO2
KTME 151055Z AUTO 00000KT 1/4SM FG BKN002 OVC013 24/24 A2989 RMK AO2
KTME 151035Z AUTO 00000KT 1/2SM BR OVC002 24/24 A2989 RMK AO2
KTME 151015Z AUTO 00000KT 3/4SM BR OVC002 24/24 A2989 RMK AO2
KTME 150955Z AUTO 00000KT 1 1/2SM BR 24/24 A2989 RMK AO2
KTME 150915Z AUTO 1 1/4SM BR 24/24 A2988 RMK AO2
KTME 150855Z AUTO 00000KT 1 3/4SM BR SCT004 BKN016 OVC039 24/24 A2988 RMK AO2
KTME 150835Z AUTO 00000KT 1/2SM BR 24/24 A2989 RMK AO2
KTME 150815Z AUTO 00000KT 2 1/2SM BR 24/24 A2989 RMK AO2
KTME 150655Z AUTO 00000KT 5SM BR 25/25 A2989 RMK AO2
KTME 150635Z AUTO 5SM BR 25/25 A2989 RMK AO2